Aeroporto :







RITROVATECI SU...

 
LOGIN :

Iscrizione | Disclaimer

   EN    FR    IT 

 









Sommario :    VFR   VFR Marginale   IFR   IFR Intensivo   IFR Molto Intensivo
Visibilità : 
Base nubi : 
>= 8 km
>= 3000ft
5 / 8 km
1000 / 3000 ft
1500m / 5 km
500 / 1000 ft
800 / 1500m
200 / 500 ft
< 800m
< 200 ft
Simboli :   Temporali  Nebbia  Neve Forte  Precipitazioni Forti  Vento > 20 kt







- Altitudine del aeroporto : 603 ft
- Codice IATA : LEB


KLEB - Lebanon Municipal

ULTIMO METAR :
  • 230553Z AUTO 33003KT 6SM -RA BR FEW003 OVC070 13/11 A3000 RMK AO2 SLP151 P0004 60031 T01280111 10189 20128 56014

METARs OBSOLETI :
  • 230453Z AUTO 03006KT 10SM -RA OVC080 13/11 A3001 RMK AO2 SLP156 P0003 T01330106 402440067
  • 230428Z AUTO 01004KT 6SM -RA BR FEW001 OVC070 14/12 A3002 RMK AO2 P0002 T01390117
  • 230353Z AUTO 03003KT 8SM -RA OVC075 14/12 A3003 RMK AO2 SLP162 P0001 T01390117

TAF KLEB
Valido dal 23 a 06 ore il 24 a 06 ore UTC


230539Z 2306/2406 01004KT P6SM -SHRA OVC080
FM230900 36003KT P6SM -SHRA OVC015
FM231500 VRB03KT P6SM BKN040
FM240000 19008KT P6SM -SHRA OVC025
FIR KZBW / America del Nord



MetMap, La meteo Aeronautica in un colpo d'occhio ! - Copyright ORBIFLY Dicembre 2007 - Disclaimer

ORBIFLY MET'MAP TEAM :

Programmazione e sviluppo : Alexandra Zaïnal
Concezione e sviluppo : Baudouin d'Aumeries
Co-Programmazione e sviluppo : Marc-Olivier Méhu
Supporto tecnico e logistico : Manuel Goepfert
Aiuto per la traduzione : Arnaldo La Scala

Contatto : metmap@orbifly.com




FONTI E CREDITI :

   NOAA